createdAt,value
2023-03-17T00:01:09.484Z,86.40
2023-03-17T00:03:23.672Z,86.30
2023-03-17T00:05:34.288Z,86.20
2023-03-17T00:07:41.780Z,86.10
2023-03-17T00:09:50.291Z,85.90
2023-03-17T00:11:57.270Z,85.90
2023-03-17T00:14:05.170Z,86.30
2023-03-17T00:16:19.912Z,85.70
2023-03-17T00:18:28.900Z,85.80
2023-03-17T00:20:36.952Z,85.70
2023-03-17T00:22:44.236Z,85.70
2023-03-17T00:24:51.932Z,85.60
2023-03-17T00:26:59.316Z,85.70
2023-03-17T00:29:06.957Z,85.50
2023-03-17T00:31:19.205Z,85.20
2023-03-17T00:33:30.037Z,85.00
2023-03-17T00:35:37.039Z,84.70
2023-03-17T00:37:44.948Z,84.40
2023-03-17T00:39:53.926Z,83.90
2023-03-17T00:42:01.054Z,83.30
2023-03-17T00:44:08.172Z,82.80
2023-03-17T00:46:18.531Z,82.30
2023-03-17T00:48:26.393Z,82.10
2023-03-17T00:50:36.999Z,81.80
2023-03-17T00:52:43.884Z,81.70
2023-03-17T00:54:52.280Z,81.60
2023-03-17T00:57:01.614Z,81.20
2023-03-17T00:59:14.683Z,80.80
2023-03-17T01:01:23.611Z,80.20
2023-03-17T01:03:32.118Z,80.00
2023-03-17T01:05:41.555Z,79.70
2023-03-17T01:07:54.880Z,79.50
2023-03-17T01:10:04.978Z,79.30
2023-03-17T01:12:15.694Z,79.10
2023-03-17T01:14:22.979Z,79.10
2023-03-17T01:16:30.367Z,78.80
2023-03-17T01:18:38.238Z,78.70
2023-03-17T01:20:48.771Z,78.50
2023-03-17T01:22:59.790Z,78.20
2023-03-17T01:25:06.824Z,77.90
2023-03-17T01:27:19.379Z,77.50
2023-03-17T01:29:26.617Z,77.20
2023-03-17T01:31:37.937Z,76.80
2023-03-17T01:33:45.992Z,76.60
2023-03-17T01:35:55.055Z,76.40
2023-03-17T01:38:02.047Z,76.10
2023-03-17T01:40:21.062Z,76.00
2023-03-17T01:42:35.361Z,75.90
2023-03-17T01:45:00.665Z,75.50
2023-03-17T01:47:09.227Z,75.10
2023-03-17T01:49:25.996Z,75.00
2023-03-17T01:51:38.802Z,74.90
2023-03-17T01:53:48.844Z,74.70
2023-03-17T01:56:02.434Z,74.50
2023-03-17T01:58:10.069Z,74.40
2023-03-17T02:00:20.717Z,74.20
2023-03-17T02:02:31.907Z,74.00
2023-03-17T02:04:41.546Z,73.80
2023-03-17T02:06:58.428Z,73.60
2023-03-17T02:09:07.429Z,73.70
2023-03-17T02:11:18.141Z,73.50
2023-03-17T02:13:27.474Z,73.30
2023-03-17T02:15:41.621Z,73.00
2023-03-17T02:17:50.751Z,72.90
2023-03-17T02:20:01.673Z,72.80
2023-03-17T02:22:11.266Z,72.60
2023-03-17T02:24:29.605Z,72.40
2023-03-17T02:26:39.800Z,72.40
2023-03-17T02:28:50.160Z,72.00
2023-03-17T02:30:58.456Z,71.80
2023-03-17T02:33:07.116Z,71.10
2023-03-17T02:35:15.745Z,71.30
2023-03-17T02:37:24.933Z,71.20
2023-03-17T02:39:32.518Z,70.90
2023-03-17T02:41:40.133Z,70.80
2023-03-17T02:51:13.503Z,70.10
2023-03-17T02:53:22.647Z,70.20
2023-03-17T02:55:32.896Z,70.00
2023-03-17T02:57:49.502Z,70.00
2023-03-17T02:59:57.238Z,69.90
2023-03-17T03:02:04.414Z,69.70
2023-03-17T03:04:13.198Z,69.80
2023-03-17T03:06:26.217Z,69.80
2023-03-17T03:08:38.829Z,69.40
2023-03-17T03:10:46.209Z,69.40
2023-03-17T03:15:16.901Z,69.50
2023-03-17T03:17:28.794Z,69.70
2023-03-17T03:19:42.789Z,69.40
2023-03-17T03:22:00.358Z,69.50
2023-03-17T03:24:14.199Z,69.30
2023-03-17T03:28:41.818Z,68.70
2023-03-17T03:30:50.676Z,68.70
2023-03-17T03:32:59.086Z,67.40
2023-03-17T03:35:10.282Z,67.80
2023-03-17T03:37:19.764Z,67.80
2023-03-17T03:39:29.919Z,67.40
2023-03-17T03:41:36.947Z,67.50
2023-03-17T03:43:45.150Z,67.00
2023-03-17T03:45:56.626Z,66.60
2023-03-17T03:48:13.843Z,66.20
2023-03-17T03:50:24.857Z,65.60
2023-03-17T03:52:41.224Z,65.90
2023-03-17T03:54:55.248Z,64.40
2023-03-17T03:57:14.409Z,65.00
2023-03-17T04:01:43.794Z,64.70
2023-03-17T04:03:54.921Z,64.90
2023-03-17T04:06:03.667Z,64.50
2023-03-17T04:10:37.081Z,63.90
2023-03-17T04:12:43.243Z,64.00
2023-03-17T04:14:57.020Z,63.60
2023-03-17T04:17:27.464Z,62.10
2023-03-17T04:19:36.786Z,63.10
2023-03-17T04:21:46.163Z,62.50
2023-03-17T04:23:58.777Z,62.30
2023-03-17T04:26:17.272Z,62.10
2023-03-17T04:28:35.664Z,61.80
2023-03-17T04:30:53.648Z,61.70
2023-03-17T04:33:01.030Z,61.20
2023-03-17T04:35:10.161Z,61.10
2023-03-17T04:37:23.850Z,61.10
2023-03-17T04:39:31.748Z,60.50
2023-03-17T04:41:40.944Z,59.40
2023-03-17T04:43:48.122Z,58.50
2023-03-17T04:45:55.920Z,59.50
2023-03-17T04:48:06.665Z,59.50
2023-03-17T04:50:19.950Z,58.90
2023-03-17T04:52:27.019Z,58.70
2023-03-17T04:54:44.955Z,58.60
2023-03-17T04:56:54.289Z,58.40
2023-03-17T04:59:06.390Z,58.10
2023-03-17T05:01:13.185Z,57.80
2023-03-17T05:03:27.181Z,57.50
2023-03-17T05:05:38.013Z,58.00
2023-03-17T05:07:49.662Z,57.30
2023-03-17T05:09:59.800Z,57.70
2023-03-17T05:12:11.045Z,57.20
2023-03-17T05:14:19.549Z,56.90
2023-03-17T05:16:28.909Z,56.50
2023-03-17T05:18:35.798Z,56.10
2023-03-17T05:20:46.103Z,55.70
2023-03-17T05:22:53.035Z,54.80
2023-03-17T05:25:02.620Z,55.10
2023-03-17T05:27:19.783Z,55.40
2023-03-17T05:29:30.602Z,55.30
2023-03-17T05:31:41.236Z,55.10
2023-03-17T05:34:07.236Z,55.10
2023-03-17T05:36:14.625Z,54.50
2023-03-17T05:40:43.119Z,54.60
2023-03-17T05:43:00.602Z,54.20
2023-03-17T05:45:11.045Z,54.20
2023-03-17T05:47:21.504Z,54.40
2023-03-17T05:49:31.756Z,54.40
2023-03-17T05:51:42.632Z,54.60
2023-03-17T05:53:59.850Z,55.90
2023-03-17T05:56:13.834Z,55.40
2023-03-17T06:00:53.902Z,54.80
2023-03-17T06:03:02.777Z,54.70
2023-03-17T06:05:17.848Z,54.30
2023-03-17T06:07:25.334Z,54.10
2023-03-17T06:11:58.330Z,53.30
2023-03-17T06:14:07.263Z,54.00
2023-03-17T06:16:20.509Z,54.60
2023-03-17T06:18:30.745Z,54.50
2023-03-17T06:20:39.404Z,53.20
2023-03-17T06:23:03.276Z,53.40
2023-03-17T06:25:25.143Z,53.10
2023-03-17T06:27:35.500Z,52.70
2023-03-17T06:29:47.022Z,52.80
2023-03-17T06:32:17.056Z,52.60
2023-03-17T06:36:52.627Z,51.40
2023-03-17T06:39:00.855Z,52.00
2023-03-17T06:41:09.137Z,52.30
2023-03-17T06:43:16.821Z,52.20
2023-03-17T06:45:32.094Z,52.10
2023-03-17T06:47:41.745Z,51.70
2023-03-17T06:49:49.224Z,51.30
2023-03-17T06:52:09.410Z,51.60
2023-03-17T06:54:28.316Z,51.90
2023-03-17T06:56:35.607Z,51.90
2023-03-17T06:58:46.366Z,51.60
2023-03-17T07:01:01.784Z,51.80
2023-03-17T07:03:21.108Z,50.90
2023-03-17T07:05:39.521Z,51.30
2023-03-17T07:07:51.488Z,51.20
2023-03-17T07:10:02.063Z,51.10
2023-03-17T07:12:09.654Z,50.40
2023-03-17T07:14:24.298Z,50.10
2023-03-17T07:16:39.195Z,50.30
2023-03-17T07:18:57.214Z,51.40
2023-03-17T07:21:10.480Z,50.60
2023-03-17T07:23:23.360Z,50.30
2023-03-17T07:25:30.682Z,49.80
2023-03-17T07:27:42.253Z,49.70
2023-03-17T07:29:57.948Z,50.40
2023-03-17T07:32:09.265Z,50.30
2023-03-17T07:36:51.486Z,50.20
2023-03-17T07:39:05.490Z,50.60
2023-03-17T07:41:13.177Z,50.40
2023-03-17T07:43:26.334Z,50.10
2023-03-17T07:45:45.776Z,49.90
2023-03-17T07:47:58.061Z,49.30
2023-03-17T07:50:05.601Z,49.50
2023-03-17T07:52:14.728Z,49.50
2023-03-17T07:54:22.786Z,49.50
2023-03-17T07:56:31.181Z,49.40
2023-03-17T07:58:42.311Z,49.00
2023-03-17T08:00:53.004Z,48.80
2023-03-17T08:03:09.781Z,48.70
2023-03-17T08:05:19.312Z,48.60
2023-03-17T08:07:27.666Z,48.70
2023-03-17T08:09:41.628Z,48.80
2023-03-17T08:11:53.921Z,48.40
2023-03-17T08:14:07.240Z,48.20
2023-03-17T08:16:19.024Z,47.60
2023-03-17T08:18:28.568Z,47.50
2023-03-17T08:20:36.322Z,47.80
2023-03-17T08:22:48.441Z,47.90
2023-03-17T08:29:46.625Z,47.90
2023-03-17T08:31:58.247Z,47.80
2023-03-17T08:34:08.302Z,47.80
2023-03-17T08:36:17.182Z,47.30
2023-03-17T08:38:27.357Z,47.90
2023-03-17T08:40:52.543Z,48.10
2023-03-17T08:43:04.727Z,47.10
2023-03-17T08:45:12.789Z,47.80
2023-03-17T08:47:21.047Z,48.00
2023-03-17T08:49:30.577Z,47.60
2023-03-17T08:51:50.353Z,47.80
2023-03-17T08:54:09.356Z,47.60
2023-03-17T08:56:22.548Z,47.60
2023-03-17T08:58:37.041Z,47.80
2023-03-17T09:00:45.456Z,47.50
2023-03-17T09:05:19.272Z,47.90
2023-03-17T09:07:29.453Z,48.40
2023-03-17T09:14:42.579Z,47.30
2023-03-17T09:17:05.867Z,47.10
2023-03-17T09:19:13.418Z,47.20
2023-03-17T09:23:50.411Z,48.70
2023-03-17T09:28:17.480Z,49.70
2023-03-17T09:30:24.580Z,49.40
2023-03-17T09:32:31.964Z,49.00
2023-03-17T09:34:39.543Z,49.30
2023-03-17T09:36:48.609Z,49.20
2023-03-17T09:38:55.537Z,49.00
2023-03-17T09:41:10.808Z,50.00
2023-03-17T09:43:33.909Z,50.60
2023-03-17T09:48:35.278Z,51.50
2023-03-17T09:50:51.005Z,49.90
2023-03-17T09:53:05.917Z,49.90
2023-03-17T09:55:30.089Z,50.10
2023-03-17T09:57:39.591Z,49.60
2023-03-17T09:59:49.540Z,49.90
2023-03-17T10:01:56.697Z,50.10
2023-03-17T10:04:13.474Z,50.30
2023-03-17T10:06:44.927Z,50.50
2023-03-17T10:09:14.587Z,50.50
2023-03-17T10:11:31.801Z,51.00
2023-03-17T10:13:54.037Z,51.30
2023-03-17T10:18:32.055Z,51.10
2023-03-17T10:20:41.952Z,51.40
2023-03-17T10:25:28.903Z,51.70
2023-03-17T10:27:41.585Z,51.80
2023-03-17T10:29:51.168Z,51.90
2023-03-17T10:34:26.317Z,52.00
2023-03-17T10:37:00.179Z,52.00
2023-03-17T10:39:20.531Z,51.90
2023-03-17T10:41:38.922Z,52.00
2023-03-17T10:43:51.922Z,51.90
2023-03-17T10:46:06.329Z,51.70
2023-03-17T10:48:14.235Z,51.50
2023-03-17T10:50:38.313Z,51.30
2023-03-17T10:52:47.223Z,51.10
2023-03-17T10:54:57.843Z,51.20
2023-03-17T10:57:15.158Z,51.40
2023-03-17T11:01:49.077Z,51.90
2023-03-17T11:04:05.510Z,52.10
2023-03-17T11:06:35.916Z,52.60
2023-03-17T11:08:51.649Z,52.80
2023-03-17T11:10:59.639Z,53.20
2023-03-17T11:13:10.106Z,53.70
2023-03-17T11:15:26.698Z,54.00
2023-03-17T11:17:55.599Z,54.40
2023-03-17T11:20:21.721Z,55.00
2023-03-17T11:22:37.011Z,55.10
2023-03-17T11:24:57.341Z,55.10
2023-03-17T11:27:06.532Z,55.30
2023-03-17T11:29:29.938Z,55.60
2023-03-17T11:31:43.514Z,55.90
2023-03-17T11:34:00.358Z,56.00
2023-03-17T11:41:59.749Z,56.50
2023-03-17T11:47:34.860Z,57.10
2023-03-17T11:50:01.974Z,57.10
2023-03-17T11:52:17.640Z,57.30
2023-03-17T11:54:43.348Z,57.70
2023-03-17T11:57:04.505Z,58.00
2023-03-17T11:59:43.021Z,58.20
2023-03-17T12:02:00.633Z,58.80
2023-03-17T12:04:21.340Z,58.70
2023-03-17T12:06:31.247Z,58.90
2023-03-17T12:08:46.639Z,59.50
2023-03-17T12:15:57.167Z,60.00
2023-03-17T12:18:13.398Z,60.10
2023-03-17T12:20:33.846Z,60.30
2023-03-17T12:25:20.676Z,60.90
2023-03-17T12:27:33.123Z,61.60
2023-03-17T12:34:59.658Z,63.70
2023-03-17T12:39:36.693Z,65.00
2023-03-17T12:42:24.211Z,65.00
2023-03-17T12:45:01.863Z,66.40
2023-03-17T12:50:10.746Z,67.40
2023-03-17T12:52:43.673Z,67.60
2023-03-17T12:57:27.241Z,69.30
2023-03-17T12:59:50.721Z,69.40
2023-03-17T13:02:02.615Z,69.60
2023-03-17T13:04:32.505Z,69.70
2023-03-17T13:06:49.267Z,69.70
2023-03-17T13:09:00.645Z,69.60
2023-03-17T13:11:40.027Z,69.60
2023-03-17T13:16:40.827Z,69.70
2023-03-17T13:18:55.435Z,70.30
2023-03-17T13:21:54.375Z,70.20
2023-03-17T13:27:05.732Z,71.00
2023-03-17T13:29:38.471Z,70.60
2023-03-17T13:36:49.457Z,70.80
2023-03-17T13:47:53.388Z,70.50
2023-03-17T13:50:07.781Z,70.50
2023-03-17T13:52:21.114Z,70.50
2023-03-17T13:56:58.616Z,70.90
2023-03-17T14:01:53.231Z,73.30
2023-03-17T14:04:04.762Z,74.20
2023-03-17T14:08:41.748Z,72.80
2023-03-17T14:16:08.041Z,74.80
2023-03-17T14:18:40.071Z,74.60
2023-03-17T14:21:12.508Z,74.70
2023-03-17T14:23:23.422Z,75.10
2023-03-17T14:28:11.165Z,76.10
2023-03-17T14:30:36.829Z,77.50
2023-03-17T14:32:55.088Z,77.70
2023-03-17T14:39:57.384Z,79.40
2023-03-17T14:44:47.017Z,79.20
2023-03-17T14:46:55.684Z,78.70
2023-03-17T14:49:07.007Z,79.00
2023-03-17T14:53:55.944Z,80.40
2023-03-17T15:01:21.737Z,79.80
2023-03-17T15:06:19.761Z,79.90
2023-03-17T15:08:54.968Z,80.70
2023-03-17T15:11:12.730Z,81.30
2023-03-17T15:13:30.413Z,81.20
2023-03-17T15:20:47.050Z,81.10
2023-03-17T15:25:29.342Z,80.20
2023-03-17T15:32:40.671Z,80.40
2023-03-17T15:44:28.784Z,81.10
2023-03-17T15:46:36.858Z,81.50
2023-03-17T15:48:45.762Z,81.60
2023-03-17T15:50:53.805Z,81.20
2023-03-17T15:53:01.241Z,81.30
2023-03-17T15:55:17.585Z,81.20
2023-03-17T15:57:24.518Z,81.20
2023-03-17T15:59:31.638Z,81.30
2023-03-17T16:01:38.804Z,81.30
2023-03-17T16:03:48.569Z,81.10
2023-03-17T16:05:55.550Z,81.20
2023-03-17T16:08:02.874Z,80.50
2023-03-17T16:10:19.882Z,80.90
2023-03-17T16:12:35.000Z,80.50
2023-03-17T16:17:20.200Z,80.50
2023-03-17T16:19:36.742Z,80.60
2023-03-17T16:21:44.490Z,80.40
2023-03-17T16:23:57.197Z,80.80
2023-03-17T16:26:16.236Z,80.50
2023-03-17T16:28:29.085Z,80.60
2023-03-17T16:33:14.153Z,80.70
2023-03-17T16:35:24.774Z,80.10
2023-03-17T16:37:31.798Z,80.40
2023-03-17T16:39:39.230Z,80.60
2023-03-17T16:41:46.156Z,80.80
2023-03-17T16:44:10.339Z,80.80
2023-03-17T16:46:18.763Z,81.00
2023-03-17T16:48:27.619Z,81.40
2023-03-17T16:52:58.838Z,81.40
2023-03-17T16:55:11.705Z,81.80
2023-03-17T16:57:28.754Z,82.20
2023-03-17T16:59:46.793Z,82.20
2023-03-17T17:01:55.903Z,81.90
2023-03-17T17:04:02.794Z,81.70
2023-03-17T17:06:13.559Z,82.10
2023-03-17T17:08:20.494Z,82.10
2023-03-17T17:10:30.318Z,82.50
2023-03-17T17:12:37.361Z,82.30
2023-03-17T17:14:44.694Z,82.20
2023-03-17T17:16:51.931Z,83.70
2023-03-17T17:18:59.522Z,84.50
2023-03-17T17:21:10.244Z,84.90
2023-03-17T17:23:35.043Z,85.40
2023-03-17T17:25:42.518Z,85.80
2023-03-17T17:30:14.913Z,85.00
2023-03-17T17:35:09.460Z,86.60
2023-03-17T17:37:30.362Z,86.10
2023-03-17T17:44:29.501Z,85.90
2023-03-17T17:48:59.517Z,86.30
2023-03-17T17:51:06.701Z,86.00
2023-03-17T17:53:14.860Z,85.50
2023-03-17T17:55:26.444Z,85.20
2023-03-17T17:57:53.898Z,85.30
2023-03-17T18:00:01.345Z,85.40
2023-03-17T18:02:16.159Z,85.50
2023-03-17T18:04:29.989Z,85.00
2023-03-17T18:06:59.946Z,85.10
2023-03-17T18:09:12.202Z,84.90
2023-03-17T18:11:23.685Z,85.20
2023-03-17T18:18:17.534Z,85.10
2023-03-17T18:22:47.359Z,85.20
2023-03-17T18:24:55.389Z,85.60
2023-03-17T18:31:58.726Z,85.70
2023-03-17T18:36:34.524Z,86.10
2023-03-17T18:38:55.458Z,86.10
2023-03-17T18:41:03.103Z,85.80
2023-03-17T18:43:13.158Z,86.10
2023-03-17T18:45:25.033Z,86.80
2023-03-17T18:47:45.481Z,87.40
2023-03-17T18:52:32.966Z,86.50
2023-03-17T18:54:53.205Z,86.90
2023-03-17T18:57:01.830Z,87.00
2023-03-17T19:03:57.622Z,87.50
2023-03-17T19:06:13.510Z,87.90
2023-03-17T19:08:20.798Z,87.90
2023-03-17T19:10:27.719Z,87.50
2023-03-17T19:12:34.949Z,87.60
2023-03-17T19:14:43.765Z,88.20
2023-03-17T19:16:51.063Z,88.50
2023-03-17T19:18:58.857Z,88.90
2023-03-17T19:21:06.382Z,88.90
2023-03-17T19:23:13.617Z,88.40
2023-03-17T19:25:20.953Z,88.10
2023-03-17T19:27:27.882Z,87.90
2023-03-17T19:29:38.592Z,87.70
2023-03-17T19:31:48.624Z,87.70
2023-03-17T19:33:56.545Z,88.00
2023-03-17T19:36:03.994Z,87.90
2023-03-17T19:38:11.380Z,87.60
2023-03-17T19:40:18.395Z,87.50
2023-03-17T19:42:25.481Z,87.50
2023-03-17T19:44:32.356Z,87.60
2023-03-17T19:46:40.816Z,87.90
2023-03-17T19:48:49.474Z,88.10
2023-03-17T19:50:56.659Z,88.10
2023-03-17T19:53:03.529Z,88.00
2023-03-17T19:55:11.734Z,87.80
2023-03-17T19:57:20.198Z,87.50
2023-03-17T19:59:27.699Z,87.00
2023-03-17T20:01:34.868Z,86.90
2023-03-17T20:03:43.648Z,87.00
2023-03-17T20:05:54.530Z,87.20
2023-03-17T20:08:01.757Z,87.20
2023-03-17T20:10:09.892Z,88.00
2023-03-17T20:12:17.133Z,88.00
2023-03-17T20:14:24.203Z,87.90
2023-03-17T20:16:34.560Z,87.50
2023-03-17T20:18:41.438Z,87.40
2023-03-17T20:20:52.165Z,87.60
2023-03-17T20:22:59.294Z,87.70
2023-03-17T20:25:06.577Z,87.70
2023-03-17T20:27:16.364Z,87.90
2023-03-17T20:29:29.015Z,87.70
2023-03-17T20:31:52.948Z,87.80
2023-03-17T20:34:00.492Z,87.70
2023-03-17T20:36:13.582Z,87.80
2023-03-17T20:38:29.128Z,87.50
2023-03-17T20:40:41.841Z,87.90
2023-03-17T20:43:08.530Z,88.40
2023-03-17T20:45:18.594Z,88.60
2023-03-17T20:47:26.846Z,88.40
2023-03-17T20:49:34.181Z,88.40
2023-03-17T20:51:43.409Z,88.30
2023-03-17T20:53:52.681Z,88.20
2023-03-17T20:56:00.130Z,88.40
2023-03-17T20:58:07.098Z,88.50
2023-03-17T21:00:19.773Z,88.20
2023-03-17T21:02:27.219Z,88.30
2023-03-17T21:04:34.583Z,88.90
2023-03-17T21:06:44.324Z,89.50
2023-03-17T21:08:51.925Z,89.80
2023-03-17T21:11:04.369Z,89.70
2023-03-17T21:13:17.694Z,89.30
2023-03-17T21:15:24.831Z,89.70
2023-03-17T21:17:36.666Z,89.70
2023-03-17T21:19:47.241Z,89.60
2023-03-17T21:21:57.075Z,89.40
2023-03-17T21:24:07.280Z,89.20
2023-03-17T21:26:15.395Z,89.20
2023-03-17T21:28:22.727Z,89.30
2023-03-17T21:30:30.334Z,89.30
2023-03-17T21:32:37.503Z,89.20
2023-03-17T21:34:45.484Z,89.00
2023-03-17T21:37:01.370Z,89.00
2023-03-17T21:39:12.660Z,89.10
2023-03-17T21:41:26.023Z,89.30
2023-03-17T21:43:33.417Z,89.10
2023-03-17T21:45:44.142Z,88.50
2023-03-17T21:50:14.231Z,88.80
2023-03-17T21:52:23.242Z,88.80
2023-03-17T21:54:35.643Z,89.10
2023-03-17T21:56:42.930Z,89.40
2023-03-17T21:58:50.667Z,90.40
2023-03-17T22:00:57.951Z,90.70
2023-03-17T22:03:05.378Z,90.60
2023-03-17T22:07:52.476Z,89.60
2023-03-17T22:10:02.627Z,89.40
2023-03-17T22:12:27.744Z,89.70
2023-03-17T22:14:36.700Z,89.90
2023-03-17T22:16:44.284Z,89.90
2023-03-17T22:23:34.106Z,88.90
2023-03-17T22:25:45.734Z,88.70
2023-03-17T22:30:20.119Z,88.30
2023-03-17T22:32:31.751Z,88.00
2023-03-17T22:34:38.931Z,87.80
2023-03-17T22:36:59.023Z,87.80
2023-03-17T22:39:21.154Z,87.70
2023-03-17T22:41:40.516Z,87.70
2023-03-17T22:43:48.721Z,87.40
2023-03-17T22:45:59.350Z,87.50
2023-03-17T22:55:23.834Z,88.00
2023-03-17T22:57:33.123Z,87.70
2023-03-17T22:59:53.188Z,87.90
2023-03-17T23:04:21.231Z,87.90
2023-03-17T23:06:36.035Z,87.80
2023-03-17T23:08:50.177Z,87.70
2023-03-17T23:11:02.791Z,87.50
2023-03-17T23:15:44.754Z,87.80
2023-03-17T23:17:56.791Z,87.50
2023-03-17T23:20:04.947Z,87.50
2023-03-17T23:22:17.869Z,87.80
2023-03-17T23:24:39.123Z,87.70
2023-03-17T23:29:15.406Z,87.90
2023-03-17T23:31:37.436Z,88.10
2023-03-17T23:33:56.902Z,88.30
2023-03-17T23:36:33.013Z,88.20
2023-03-17T23:43:36.634Z,88.80
2023-03-17T23:50:27.628Z,89.40
2023-03-17T23:52:34.598Z,89.60
2023-03-17T23:57:27.881Z,89.70
2023-03-17T23:59:36.290Z,90.20
